sensor_id;sensor_type;location;lat;lon;timestamp;P1;durP1;ratioP1;P2;durP2;ratioP2
7703;SDS011;3894;49.700;10.770;2023-06-22T00:01:27;13.55;;;8.75;;
7703;SDS011;3894;49.700;10.770;2023-06-22T00:03:53;14.48;;;8.23;;
7703;SDS011;3894;49.700;10.770;2023-06-22T00:06:19;14.27;;;9.15;;
7703;SDS011;3894;49.700;10.770;2023-06-22T00:08:44;13.45;;;8.63;;
7703;SDS011;3894;49.700;10.770;2023-06-22T00:11:10;11.43;;;8.27;;
7703;SDS011;3894;49.700;10.770;2023-06-22T00:13:37;13.55;;;8.55;;
7703;SDS011;3894;49.700;10.770;2023-06-22T00:16:03;13.65;;;8.70;;
7703;SDS011;3894;49.700;10.770;2023-06-22T00:18:29;13.40;;;8.63;;
7703;SDS011;3894;49.700;10.770;2023-06-22T00:20:55;12.85;;;9.05;;
7703;SDS011;3894;49.700;10.770;2023-06-22T00:23:23;12.90;;;8.57;;
7703;SDS011;3894;49.700;10.770;2023-06-22T00:25:49;11.73;;;8.15;;
7703;SDS011;3894;49.700;10.770;2023-06-22T00:28:15;14.13;;;8.55;;
7703;SDS011;3894;49.700;10.770;2023-06-22T00:30:41;11.93;;;8.43;;
7703;SDS011;3894;49.700;10.770;2023-06-22T00:33:06;13.45;;;8.82;;
7703;SDS011;3894;49.700;10.770;2023-06-22T00:35:32;12.50;;;8.07;;
7703;SDS011;3894;49.700;10.770;2023-06-22T00:37:59;13.10;;;8.52;;
7703;SDS011;3894;49.700;10.770;2023-06-22T00:40:30;18.10;;;9.05;;
7703;SDS011;3894;49.700;10.770;2023-06-22T00:45:23;12.98;;;8.43;;
7703;SDS011;3894;49.700;10.770;2023-06-22T00:47:50;12.60;;;8.27;;
7703;SDS011;3894;49.700;10.770;2023-06-22T00:50:18;14.27;;;9.13;;
7703;SDS011;3894;49.700;10.770;2023-06-22T00:52:46;15.70;;;9.70;;
7703;SDS011;3894;49.700;10.770;2023-06-22T00:55:21;13.95;;;9.20;;
7703;SDS011;3894;49.700;10.770;2023-06-22T00:57:48;12.70;;;8.75;;
7703;SDS011;3894;49.700;10.770;2023-06-22T01:00:14;15.05;;;9.43;;
7703;SDS011;3894;49.700;10.770;2023-06-22T01:02:45;14.10;;;9.48;;
7703;SDS011;3894;49.700;10.770;2023-06-22T01:05:14;14.20;;;8.27;;
7703;SDS011;3894;49.700;10.770;2023-06-22T01:10:36;13.88;;;9.38;;
7703;SDS011;3894;49.700;10.770;2023-06-22T01:16:25;15.23;;;8.43;;
7703;SDS011;3894;49.700;10.770;2023-06-22T01:18:55;14.98;;;8.48;;
7703;SDS011;3894;49.700;10.770;2023-06-22T01:21:23;13.30;;;9.05;;
7703;SDS011;3894;49.700;10.770;2023-06-22T01:24:10;13.52;;;9.25;;
7703;SDS011;3894;49.700;10.770;2023-06-22T01:29:47;14.07;;;9.23;;
7703;SDS011;3894;49.700;10.770;2023-06-22T01:32:25;14.63;;;9.70;;
7703;SDS011;3894;49.700;10.770;2023-06-22T01:35:00;15.43;;;8.77;;
7703;SDS011;3894;49.700;10.770;2023-06-22T01:37:28;12.85;;;8.88;;
7703;SDS011;3894;49.700;10.770;2023-06-22T01:39:57;13.63;;;9.43;;
7703;SDS011;3894;49.700;10.770;2023-06-22T01:42:24;15.07;;;9.57;;
7703;SDS011;3894;49.700;10.770;2023-06-22T01:44:51;16.25;;;10.75;;
7703;SDS011;3894;49.700;10.770;2023-06-22T01:47:21;15.75;;;10.80;;
7703;SDS011;3894;49.700;10.770;2023-06-22T01:49:47;15.90;;;10.05;;
7703;SDS011;3894;49.700;10.770;2023-06-22T01:52:14;15.48;;;10.40;;
7703;SDS011;3894;49.700;10.770;2023-06-22T01:54:41;13.63;;;9.77;;
7703;SDS011;3894;49.700;10.770;2023-06-22T01:57:07;16.40;;;10.02;;
7703;SDS011;3894;49.700;10.770;2023-06-22T01:59:34;16.00;;;11.25;;
7703;SDS011;3894;49.700;10.770;2023-06-22T02:02:09;14.10;;;9.88;;
7703;SDS011;3894;49.700;10.770;2023-06-22T02:07:21;16.55;;;9.05;;
7703;SDS011;3894;49.700;10.770;2023-06-22T02:12:17;14.93;;;9.38;;
7703;SDS011;3894;49.700;10.770;2023-06-22T02:14:46;15.27;;;10.65;;
7703;SDS011;3894;49.700;10.770;2023-06-22T02:17:12;16.35;;;9.68;;
7703;SDS011;3894;49.700;10.770;2023-06-22T02:19:41;15.48;;;9.60;;
7703;SDS011;3894;49.700;10.770;2023-06-22T02:22:07;15.80;;;9.70;;
7703;SDS011;3894;49.700;10.770;2023-06-22T02:24:33;14.40;;;8.85;;
7703;SDS011;3894;49.700;10.770;2023-06-22T02:26:59;14.70;;;10.05;;
7703;SDS011;3894;49.700;10.770;2023-06-22T02:29:25;13.52;;;8.38;;
7703;SDS011;3894;49.700;10.770;2023-06-22T02:31:52;14.13;;;8.88;;
7703;SDS011;3894;49.700;10.770;2023-06-22T02:34:18;15.32;;;9.05;;
7703;SDS011;3894;49.700;10.770;2023-06-22T02:36:47;16.20;;;9.70;;
7703;SDS011;3894;49.700;10.770;2023-06-22T02:39:19;16.63;;;10.65;;
7703;SDS011;3894;49.700;10.770;2023-06-22T02:41:47;18.30;;;11.65;;
7703;SDS011;3894;49.700;10.770;2023-06-22T02:44:17;16.75;;;11.38;;
7703;SDS011;3894;49.700;10.770;2023-06-22T02:46:44;17.38;;;11.15;;
7703;SDS011;3894;49.700;10.770;2023-06-22T02:49:10;16.73;;;10.93;;
7703;SDS011;3894;49.700;10.770;2023-06-22T02:51:37;16.75;;;11.20;;
7703;SDS011;3894;49.700;10.770;2023-06-22T02:54:04;16.58;;;11.15;;
7703;SDS011;3894;49.700;10.770;2023-06-22T02:56:30;17.52;;;11.80;;
7703;SDS011;3894;49.700;10.770;2023-06-22T02:58:56;17.92;;;11.65;;
7703;SDS011;3894;49.700;10.770;2023-06-22T03:01:26;16.63;;;10.35;;
7703;SDS011;3894;49.700;10.770;2023-06-22T03:03:58;18.60;;;12.13;;
7703;SDS011;3894;49.700;10.770;2023-06-22T03:06:24;15.23;;;10.88;;
7703;SDS011;3894;49.700;10.770;2023-06-22T03:08:53;18.92;;;11.93;;
7703;SDS011;3894;49.700;10.770;2023-06-22T03:11:23;16.50;;;11.90;;
7703;SDS011;3894;49.700;10.770;2023-06-22T03:13:49;18.02;;;10.82;;
7703;SDS011;3894;49.700;10.770;2023-06-22T03:16:17;19.25;;;11.00;;
7703;SDS011;3894;49.700;10.770;2023-06-22T03:18:42;18.48;;;12.05;;
7703;SDS011;3894;49.700;10.770;2023-06-22T03:21:08;15.90;;;11.48;;
7703;SDS011;3894;49.700;10.770;2023-06-22T03:23:34;17.27;;;11.75;;
7703;SDS011;3894;49.700;10.770;2023-06-22T03:25:59;15.70;;;10.68;;
7703;SDS011;3894;49.700;10.770;2023-06-22T03:28:25;17.90;;;10.65;;
7703;SDS011;3894;49.700;10.770;2023-06-22T03:30:50;15.80;;;10.73;;
7703;SDS011;3894;49.700;10.770;2023-06-22T03:33:16;20.10;;;12.27;;
7703;SDS011;3894;49.700;10.770;2023-06-22T03:35:41;15.85;;;10.30;;
7703;SDS011;3894;49.700;10.770;2023-06-22T03:38:07;19.35;;;11.40;;
7703;SDS011;3894;49.700;10.770;2023-06-22T03:40:33;15.48;;;11.27;;
7703;SDS011;3894;49.700;10.770;2023-06-22T03:42:58;18.27;;;11.02;;
7703;SDS011;3894;49.700;10.770;2023-06-22T03:45:24;16.17;;;10.73;;
7703;SDS011;3894;49.700;10.770;2023-06-22T03:47:50;14.88;;;11.20;;
7703;SDS011;3894;49.700;10.770;2023-06-22T03:50:15;17.80;;;11.75;;
7703;SDS011;3894;49.700;10.770;2023-06-22T03:52:41;18.65;;;11.05;;
7703;SDS011;3894;49.700;10.770;2023-06-22T03:55:06;18.58;;;12.27;;
7703;SDS011;3894;49.700;10.770;2023-06-22T03:57:33;18.10;;;12.38;;
7703;SDS011;3894;49.700;10.770;2023-06-22T03:59:59;18.80;;;13.05;;
7703;SDS011;3894;49.700;10.770;2023-06-22T04:02:25;19.75;;;11.90;;
7703;SDS011;3894;49.700;10.770;2023-06-22T04:04:51;19.83;;;12.27;;
7703;SDS011;3894;49.700;10.770;2023-06-22T04:07:16;20.23;;;12.93;;
7703;SDS011;3894;49.700;10.770;2023-06-22T04:09:43;20.17;;;12.82;;
7703;SDS011;3894;49.700;10.770;2023-06-22T04:12:09;18.85;;;12.35;;
7703;SDS011;3894;49.700;10.770;2023-06-22T04:14:34;18.45;;;12.55;;
7703;SDS011;3894;49.700;10.770;2023-06-22T04:17:01;17.38;;;11.88;;
7703;SDS011;3894;49.700;10.770;2023-06-22T04:19:26;17.15;;;11.95;;
7703;SDS011;3894;49.700;10.770;2023-06-22T04:21:52;19.63;;;11.27;;
7703;SDS011;3894;49.700;10.770;2023-06-22T04:24:18;17.98;;;11.80;;
7703;SDS011;3894;49.700;10.770;2023-06-22T04:26:43;21.15;;;13.02;;
7703;SDS011;3894;49.700;10.770;2023-06-22T04:29:10;20.30;;;12.30;;
7703;SDS011;3894;49.700;10.770;2023-06-22T04:31:36;17.75;;;11.82;;
7703;SDS011;3894;49.700;10.770;2023-06-22T04:34:03;18.50;;;12.30;;
7703;SDS011;3894;49.700;10.770;2023-06-22T04:36:35;18.20;;;12.98;;
7703;SDS011;3894;49.700;10.770;2023-06-22T04:39:09;20.33;;;12.23;;
7703;SDS011;3894;49.700;10.770;2023-06-22T04:41:36;19.85;;;13.25;;
7703;SDS011;3894;49.700;10.770;2023-06-22T04:44:14;18.92;;;12.32;;
7703;SDS011;3894;49.700;10.770;2023-06-22T04:46:48;18.20;;;12.50;;
7703;SDS011;3894;49.700;10.770;2023-06-22T04:49:18;17.88;;;12.00;;
7703;SDS011;3894;49.700;10.770;2023-06-22T04:51:48;20.63;;;11.95;;
7703;SDS011;3894;49.700;10.770;2023-06-22T04:54:16;18.83;;;11.90;;
7703;SDS011;3894;49.700;10.770;2023-06-22T04:56:42;17.15;;;11.70;;
7703;SDS011;3894;49.700;10.770;2023-06-22T04:59:07;20.65;;;12.52;;
7703;SDS011;3894;49.700;10.770;2023-06-22T05:01:33;18.88;;;12.93;;
7703;SDS011;3894;49.700;10.770;2023-06-22T05:04:00;20.30;;;12.52;;
7703;SDS011;3894;49.700;10.770;2023-06-22T05:06:26;18.67;;;13.18;;
7703;SDS011;3894;49.700;10.770;2023-06-22T05:08:56;19.52;;;12.80;;
7703;SDS011;3894;49.700;10.770;2023-06-22T05:11:23;15.60;;;11.88;;
7703;SDS011;3894;49.700;10.770;2023-06-22T05:13:52;18.40;;;11.55;;
7703;SDS011;3894;49.700;10.770;2023-06-22T05:16:19;17.42;;;11.88;;
7703;SDS011;3894;49.700;10.770;2023-06-22T05:18:50;18.58;;;11.27;;
7703;SDS011;3894;49.700;10.770;2023-06-22T05:21:17;16.98;;;11.25;;
7703;SDS011;3894;49.700;10.770;2023-06-22T05:23:42;16.05;;;10.88;;
7703;SDS011;3894;49.700;10.770;2023-06-22T05:26:08;16.83;;;11.02;;
7703;SDS011;3894;49.700;10.770;2023-06-22T05:28:35;15.23;;;10.13;;
7703;SDS011;3894;49.700;10.770;2023-06-22T05:31:00;16.13;;;10.50;;
7703;SDS011;3894;49.700;10.770;2023-06-22T05:33:26;14.48;;;10.00;;
7703;SDS011;3894;49.700;10.770;2023-06-22T05:35:51;15.10;;;10.02;;
7703;SDS011;3894;49.700;10.770;2023-06-22T05:38:17;15.75;;;10.23;;
7703;SDS011;3894;49.700;10.770;2023-06-22T05:40:42;15.68;;;9.95;;
7703;SDS011;3894;49.700;10.770;2023-06-22T05:43:08;15.70;;;9.82;;
7703;SDS011;3894;49.700;10.770;2023-06-22T05:45:34;15.48;;;10.05;;
7703;SDS011;3894;49.700;10.770;2023-06-22T05:47:59;13.95;;;8.25;;
7703;SDS011;3894;49.700;10.770;2023-06-22T05:50:26;15.77;;;9.35;;
7703;SDS011;3894;49.700;10.770;2023-06-22T05:52:52;13.27;;;8.45;;
7703;SDS011;3894;49.700;10.770;2023-06-22T05:55:17;13.05;;;8.15;;
7703;SDS011;3894;49.700;10.770;2023-06-22T05:57:43;12.80;;;8.07;;
7703;SDS011;3894;49.700;10.770;2023-06-22T06:00:09;12.85;;;8.38;;
7703;SDS011;3894;49.700;10.770;2023-06-22T06:02:36;12.10;;;8.25;;
7703;SDS011;3894;49.700;10.770;2023-06-22T06:05:02;14.23;;;8.32;;
7703;SDS011;3894;49.700;10.770;2023-06-22T06:07:28;11.90;;;8.35;;
7703;SDS011;3894;49.700;10.770;2023-06-22T06:09:54;14.38;;;7.68;;
7703;SDS011;3894;49.700;10.770;2023-06-22T06:12:19;13.43;;;8.10;;
7703;SDS011;3894;49.700;10.770;2023-06-22T06:14:45;13.85;;;9.65;;
7703;SDS011;3894;49.700;10.770;2023-06-22T06:17:12;13.43;;;8.50;;
7703;SDS011;3894;49.700;10.770;2023-06-22T06:19:38;11.70;;;7.82;;
7703;SDS011;3894;49.700;10.770;2023-06-22T06:22:03;12.13;;;8.82;;
7703;SDS011;3894;49.700;10.770;2023-06-22T06:24:29;11.55;;;8.30;;
7703;SDS011;3894;49.700;10.770;2023-06-22T06:26:54;12.80;;;8.95;;
7703;SDS011;3894;49.700;10.770;2023-06-22T06:29:20;12.02;;;8.18;;
7703;SDS011;3894;49.700;10.770;2023-06-22T06:31:45;11.38;;;7.97;;
7703;SDS011;3894;49.700;10.770;2023-06-22T06:34:11;11.13;;;7.78;;
7703;SDS011;3894;49.700;10.770;2023-06-22T06:36:37;10.98;;;7.68;;
7703;SDS011;3894;49.700;10.770;2023-06-22T06:39:02;12.85;;;8.93;;
7703;SDS011;3894;49.700;10.770;2023-06-22T06:41:28;12.32;;;8.10;;
7703;SDS011;3894;49.700;10.770;2023-06-22T06:43:54;12.63;;;8.55;;
7703;SDS011;3894;49.700;10.770;2023-06-22T06:46:20;13.18;;;8.30;;
7703;SDS011;3894;49.700;10.770;2023-06-22T06:48:45;12.00;;;7.55;;
7703;SDS011;3894;49.700;10.770;2023-06-22T06:51:12;12.13;;;8.15;;
7703;SDS011;3894;49.700;10.770;2023-06-22T06:53:37;12.43;;;7.70;;
7703;SDS011;3894;49.700;10.770;2023-06-22T06:56:03;11.98;;;7.97;;
7703;SDS011;3894;49.700;10.770;2023-06-22T06:58:30;11.70;;;7.97;;
7703;SDS011;3894;49.700;10.770;2023-06-22T07:00:56;10.95;;;7.45;;
7703;SDS011;3894;49.700;10.770;2023-06-22T07:03:21;13.77;;;7.57;;
7703;SDS011;3894;49.700;10.770;2023-06-22T07:05:47;11.30;;;7.80;;
7703;SDS011;3894;49.700;10.770;2023-06-22T07:08:13;11.82;;;7.47;;
7703;SDS011;3894;49.700;10.770;2023-06-22T07:10:38;10.27;;;6.95;;
7703;SDS011;3894;49.700;10.770;2023-06-22T07:13:04;11.30;;;7.47;;
7703;SDS011;3894;49.700;10.770;2023-06-22T07:15:29;11.45;;;7.65;;
7703;SDS011;3894;49.700;10.770;2023-06-22T07:17:55;9.88;;;7.28;;
7703;SDS011;3894;49.700;10.770;2023-06-22T07:20:21;10.27;;;6.85;;
7703;SDS011;3894;49.700;10.770;2023-06-22T07:22:46;10.65;;;7.22;;
7703;SDS011;3894;49.700;10.770;2023-06-22T07:25:12;9.43;;;6.40;;
7703;SDS011;3894;49.700;10.770;2023-06-22T07:27:45;12.45;;;5.78;;
7703;SDS011;3894;49.700;10.770;2023-06-22T07:30:21;12.00;;;6.50;;
7703;SDS011;3894;49.700;10.770;2023-06-22T07:32:47;9.57;;;5.80;;
7703;SDS011;3894;49.700;10.770;2023-06-22T07:35:12;9.75;;;6.40;;
7703;SDS011;3894;49.700;10.770;2023-06-22T07:37:38;9.25;;;5.93;;
7703;SDS011;3894;49.700;10.770;2023-06-22T07:40:04;12.25;;;6.07;;
7703;SDS011;3894;49.700;10.770;2023-06-22T07:42:31;10.30;;;6.85;;
7703;SDS011;3894;49.700;10.770;2023-06-22T07:44:57;9.35;;;5.68;;
7703;SDS011;3894;49.700;10.770;2023-06-22T07:47:23;9.65;;;6.03;;
7703;SDS011;3894;49.700;10.770;2023-06-22T07:49:51;9.98;;;5.55;;
7703;SDS011;3894;49.700;10.770;2023-06-22T07:52:19;10.65;;;6.38;;
7703;SDS011;3894;49.700;10.770;2023-06-22T07:54:46;8.73;;;4.95;;
7703;SDS011;3894;49.700;10.770;2023-06-22T07:57:12;7.88;;;4.53;;
7703;SDS011;3894;49.700;10.770;2023-06-22T07:59:37;9.90;;;6.78;;
7703;SDS011;3894;49.700;10.770;2023-06-22T08:02:03;9.18;;;5.72;;
7703;SDS011;3894;49.700;10.770;2023-06-22T08:04:30;8.40;;;5.68;;
7703;SDS011;3894;49.700;10.770;2023-06-22T08:06:59;8.10;;;5.47;;
7703;SDS011;3894;49.700;10.770;2023-06-22T08:09:27;10.55;;;6.70;;
7703;SDS011;3894;49.700;10.770;2023-06-22T08:11:53;9.07;;;5.25;;
7703;SDS011;3894;49.700;10.770;2023-06-22T08:14:20;9.40;;;6.38;;
7703;SDS011;3894;49.700;10.770;2023-06-22T08:16:46;9.70;;;5.80;;
7703;SDS011;3894;49.700;10.770;2023-06-22T08:19:12;8.82;;;5.75;;
7703;SDS011;3894;49.700;10.770;2023-06-22T08:21:37;9.07;;;5.53;;
7703;SDS011;3894;49.700;10.770;2023-06-22T08:24:03;9.25;;;5.22;;
7703;SDS011;3894;49.700;10.770;2023-06-22T08:26:29;10.18;;;5.32;;
7703;SDS011;3894;49.700;10.770;2023-06-22T08:28:54;9.07;;;5.20;;
7703;SDS011;3894;49.700;10.770;2023-06-22T08:31:20;7.60;;;5.05;;
7703;SDS011;3894;49.700;10.770;2023-06-22T08:33:45;8.35;;;5.03;;
7703;SDS011;3894;49.700;10.770;2023-06-22T08:36:11;7.97;;;4.43;;
7703;SDS011;3894;49.700;10.770;2023-06-22T08:38:38;8.90;;;4.75;;
7703;SDS011;3894;49.700;10.770;2023-06-22T08:41:04;8.00;;;5.20;;
7703;SDS011;3894;49.700;10.770;2023-06-22T08:43:29;7.70;;;4.82;;
7703;SDS011;3894;49.700;10.770;2023-06-22T08:45:55;9.48;;;5.25;;
7703;SDS011;3894;49.700;10.770;2023-06-22T08:48:21;8.40;;;4.78;;
7703;SDS011;3894;49.700;10.770;2023-06-22T08:50:46;7.63;;;4.43;;
7703;SDS011;3894;49.700;10.770;2023-06-22T08:53:12;7.47;;;5.38;;
7703;SDS011;3894;49.700;10.770;2023-06-22T08:55:37;9.43;;;5.25;;
7703;SDS011;3894;49.700;10.770;2023-06-22T08:58:03;8.90;;;5.15;;
7703;SDS011;3894;49.700;10.770;2023-06-22T09:00:29;8.07;;;4.60;;
7703;SDS011;3894;49.700;10.770;2023-06-22T09:02:57;8.60;;;4.45;;
7703;SDS011;3894;49.700;10.770;2023-06-22T09:05:24;7.38;;;4.40;;
7703;SDS011;3894;49.700;10.770;2023-06-22T09:07:51;7.57;;;4.97;;
7703;SDS011;3894;49.700;10.770;2023-06-22T09:10:16;8.68;;;4.90;;
7703;SDS011;3894;49.700;10.770;2023-06-22T09:12:43;7.63;;;4.78;;
7703;SDS011;3894;49.700;10.770;2023-06-22T09:15:09;9.38;;;5.10;;
7703;SDS011;3894;49.700;10.770;2023-06-22T09:17:35;7.97;;;5.00;;
7703;SDS011;3894;49.700;10.770;2023-06-22T09:20:01;7.65;;;4.57;;
7703;SDS011;3894;49.700;10.770;2023-06-22T09:22:30;7.53;;;5.05;;
7703;SDS011;3894;49.700;10.770;2023-06-22T09:24:56;8.25;;;4.70;;
7703;SDS011;3894;49.700;10.770;2023-06-22T09:27:22;8.52;;;4.55;;
7703;SDS011;3894;49.700;10.770;2023-06-22T09:29:48;7.10;;;4.55;;
7703;SDS011;3894;49.700;10.770;2023-06-22T09:32:14;9.32;;;4.75;;
7703;SDS011;3894;49.700;10.770;2023-06-22T09:34:40;9.23;;;5.10;;
7703;SDS011;3894;49.700;10.770;2023-06-22T09:37:05;8.82;;;3.83;;
7703;SDS011;3894;49.700;10.770;2023-06-22T09:39:31;8.65;;;4.10;;
7703;SDS011;3894;49.700;10.770;2023-06-22T09:41:59;7.35;;;4.32;;
7703;SDS011;3894;49.700;10.770;2023-06-22T09:44:25;7.57;;;4.60;;
7703;SDS011;3894;49.700;10.770;2023-06-22T09:46:51;7.63;;;4.82;;
7703;SDS011;3894;49.700;10.770;2023-06-22T09:49:16;9.90;;;5.15;;
7703;SDS011;3894;49.700;10.770;2023-06-22T09:51:42;8.02;;;4.53;;
7703;SDS011;3894;49.700;10.770;2023-06-22T09:54:07;7.53;;;4.55;;
7703;SDS011;3894;49.700;10.770;2023-06-22T09:56:33;8.73;;;4.20;;
7703;SDS011;3894;49.700;10.770;2023-06-22T09:58:58;7.28;;;4.63;;
7703;SDS011;3894;49.700;10.770;2023-06-22T10:01:24;9.15;;;4.50;;
7703;SDS011;3894;49.700;10.770;2023-06-22T10:03:50;7.72;;;4.57;;
7703;SDS011;3894;49.700;10.770;2023-06-22T10:06:19;8.00;;;4.60;;
7703;SDS011;3894;49.700;10.770;2023-06-22T10:08:45;8.00;;;3.83;;
7703;SDS011;3894;49.700;10.770;2023-06-22T10:11:10;8.35;;;4.72;;
7703;SDS011;3894;49.700;10.770;2023-06-22T10:13:36;8.70;;;4.97;;
7703;SDS011;3894;49.700;10.770;2023-06-22T10:16:01;7.68;;;4.25;;
7703;SDS011;3894;49.700;10.770;2023-06-22T10:18:27;9.63;;;5.75;;
7703;SDS011;3894;49.700;10.770;2023-06-22T10:20:53;7.93;;;4.15;;
7703;SDS011;3894;49.700;10.770;2023-06-22T10:23:19;8.30;;;5.75;;
7703;SDS011;3894;49.700;10.770;2023-06-22T10:25:45;8.07;;;5.35;;
7703;SDS011;3894;49.700;10.770;2023-06-22T10:28:11;7.80;;;4.22;;
7703;SDS011;3894;49.700;10.770;2023-06-22T10:30:37;7.60;;;4.50;;
7703;SDS011;3894;49.700;10.770;2023-06-22T10:33:06;8.05;;;4.53;;
7703;SDS011;3894;49.700;10.770;2023-06-22T10:35:34;8.27;;;4.78;;
7703;SDS011;3894;49.700;10.770;2023-06-22T10:38:00;8.40;;;4.60;;
7703;SDS011;3894;49.700;10.770;2023-06-22T10:40:25;8.52;;;4.72;;
7703;SDS011;3894;49.700;10.770;2023-06-22T10:42:51;9.10;;;4.95;;
7703;SDS011;3894;49.700;10.770;2023-06-22T10:45:16;8.05;;;4.38;;
7703;SDS011;3894;49.700;10.770;2023-06-22T10:47:42;10.57;;;5.13;;
7703;SDS011;3894;49.700;10.770;2023-06-22T10:50:07;7.35;;;4.95;;
7703;SDS011;3894;49.700;10.770;2023-06-22T10:52:33;8.63;;;5.30;;
7703;SDS011;3894;49.700;10.770;2023-06-22T10:54:59;8.85;;;5.10;;
7703;SDS011;3894;49.700;10.770;2023-06-22T10:57:24;8.27;;;4.65;;
7703;SDS011;3894;49.700;10.770;2023-06-22T10:59:50;8.93;;;4.47;;
7703;SDS011;3894;49.700;10.770;2023-06-22T11:02:16;9.73;;;5.05;;
7703;SDS011;3894;49.700;10.770;2023-06-22T11:04:42;8.90;;;4.18;;
7703;SDS011;3894;49.700;10.770;2023-06-22T11:07:07;9.52;;;4.82;;
7703;SDS011;3894;49.700;10.770;2023-06-22T11:09:33;8.93;;;4.88;;
7703;SDS011;3894;49.700;10.770;2023-06-22T11:11:59;9.18;;;5.18;;
7703;SDS011;3894;49.700;10.770;2023-06-22T11:14:25;9.77;;;4.20;;
7703;SDS011;3894;49.700;10.770;2023-06-22T11:16:50;9.90;;;4.97;;
7703;SDS011;3894;49.700;10.770;2023-06-22T11:19:16;8.38;;;3.95;;
7703;SDS011;3894;49.700;10.770;2023-06-22T11:21:42;9.23;;;5.03;;
7703;SDS011;3894;49.700;10.770;2023-06-22T11:24:07;8.88;;;5.15;;
7703;SDS011;3894;49.700;10.770;2023-06-22T11:26:33;10.57;;;5.35;;
7703;SDS011;3894;49.700;10.770;2023-06-22T11:28:59;8.80;;;5.22;;
7703;SDS011;3894;49.700;10.770;2023-06-22T11:31:25;8.95;;;4.82;;
7703;SDS011;3894;49.700;10.770;2023-06-22T11:33:50;7.30;;;5.15;;
7703;SDS011;3894;49.700;10.770;2023-06-22T11:36:17;9.50;;;6.15;;
7703;SDS011;3894;49.700;10.770;2023-06-22T11:38:43;9.10;;;5.32;;
7703;SDS011;3894;49.700;10.770;2023-06-22T11:41:09;9.32;;;5.60;;
7703;SDS011;3894;49.700;10.770;2023-06-22T11:43:35;7.97;;;4.63;;
7703;SDS011;3894;49.700;10.770;2023-06-22T11:46:02;9.25;;;4.22;;
7703;SDS011;3894;49.700;10.770;2023-06-22T11:48:28;10.48;;;6.07;;
7703;SDS011;3894;49.700;10.770;2023-06-22T11:50:54;6.80;;;4.47;;
7703;SDS011;3894;49.700;10.770;2023-06-22T11:53:20;9.23;;;5.05;;
7703;SDS011;3894;49.700;10.770;2023-06-22T11:58:12;8.68;;;4.68;;
7703;SDS011;3894;49.700;10.770;2023-06-22T12:00:38;7.72;;;4.97;;
7703;SDS011;3894;49.700;10.770;2023-06-22T12:03:04;8.23;;;5.82;;
7703;SDS011;3894;49.700;10.770;2023-06-22T12:05:29;10.57;;;5.10;;
7703;SDS011;3894;49.700;10.770;2023-06-22T12:07:55;10.23;;;5.05;;
7703;SDS011;3894;49.700;10.770;2023-06-22T12:10:21;8.75;;;5.22;;
7703;SDS011;3894;49.700;10.770;2023-06-22T12:12:47;10.15;;;5.57;;
7703;SDS011;3894;49.700;10.770;2023-06-22T12:15:13;10.75;;;5.28;;
7703;SDS011;3894;49.700;10.770;2023-06-22T12:17:39;8.43;;;5.55;;
7703;SDS011;3894;49.700;10.770;2023-06-22T12:20:05;10.52;;;4.15;;
7703;SDS011;3894;49.700;10.770;2023-06-22T12:22:32;11.70;;;5.70;;
7703;SDS011;3894;49.700;10.770;2023-06-22T12:24:57;9.00;;;5.07;;
7703;SDS011;3894;49.700;10.770;2023-06-22T12:27:23;10.32;;;5.55;;
7703;SDS011;3894;49.700;10.770;2023-06-22T12:32:15;11.68;;;5.35;;
7703;SDS011;3894;49.700;10.770;2023-06-22T12:34:41;8.43;;;5.32;;
7703;SDS011;3894;49.700;10.770;2023-06-22T12:39:33;9.52;;;5.40;;
7703;SDS011;3894;49.700;10.770;2023-06-22T12:41:58;9.38;;;4.60;;
7703;SDS011;3894;49.700;10.770;2023-06-22T12:44:24;9.75;;;4.80;;
7703;SDS011;3894;49.700;10.770;2023-06-22T12:46:50;7.88;;;6.40;;
7703;SDS011;3894;49.700;10.770;2023-06-22T12:49:15;10.15;;;4.97;;
7703;SDS011;3894;49.700;10.770;2023-06-22T12:51:41;9.23;;;4.03;;
7703;SDS011;3894;49.700;10.770;2023-06-22T12:54:09;9.13;;;5.35;;
7703;SDS011;3894;49.700;10.770;2023-06-22T12:56:35;10.80;;;5.53;;
7703;SDS011;3894;49.700;10.770;2023-06-22T12:59:01;8.90;;;5.05;;
7703;SDS011;3894;49.700;10.770;2023-06-22T13:01:30;9.90;;;5.22;;
7703;SDS011;3894;49.700;10.770;2023-06-22T13:03:56;8.90;;;5.65;;
7703;SDS011;3894;49.700;10.770;2023-06-22T13:06:23;8.60;;;5.28;;
7703;SDS011;3894;49.700;10.770;2023-06-22T13:08:49;7.70;;;4.75;;
7703;SDS011;3894;49.700;10.770;2023-06-22T13:11:14;9.65;;;5.57;;
7703;SDS011;3894;49.700;10.770;2023-06-22T13:13:40;12.20;;;5.47;;
7703;SDS011;3894;49.700;10.770;2023-06-22T13:16:06;10.05;;;4.70;;
7703;SDS011;3894;49.700;10.770;2023-06-22T13:18:32;11.55;;;5.97;;
7703;SDS011;3894;49.700;10.770;2023-06-22T13:20:59;9.35;;;5.00;;
7703;SDS011;3894;49.700;10.770;2023-06-22T13:23:25;12.10;;;5.38;;
7703;SDS011;3894;49.700;10.770;2023-06-22T13:25:51;7.57;;;4.88;;
7703;SDS011;3894;49.700;10.770;2023-06-22T13:28:16;11.45;;;5.05;;
7703;SDS011;3894;49.700;10.770;2023-06-22T13:30:42;9.50;;;5.35;;
7703;SDS011;3894;49.700;10.770;2023-06-22T13:33:10;11.88;;;5.07;;
7703;SDS011;3894;49.700;10.770;2023-06-22T13:35:36;9.30;;;5.18;;
7703;SDS011;3894;49.700;10.770;2023-06-22T13:38:02;11.68;;;4.88;;
7703;SDS011;3894;49.700;10.770;2023-06-22T13:40:28;9.98;;;6.00;;
7703;SDS011;3894;49.700;10.770;2023-06-22T13:42:54;10.30;;;4.85;;
7703;SDS011;3894;49.700;10.770;2023-06-22T13:45:20;8.18;;;5.00;;
7703;SDS011;3894;49.700;10.770;2023-06-22T13:47:46;9.93;;;5.63;;
7703;SDS011;3894;49.700;10.770;2023-06-22T13:50:11;12.10;;;5.60;;
7703;SDS011;3894;49.700;10.770;2023-06-22T13:52:40;8.77;;;4.57;;
7703;SDS011;3894;49.700;10.770;2023-06-22T13:55:05;9.43;;;5.43;;
7703;SDS011;3894;49.700;10.770;2023-06-22T13:57:34;9.35;;;5.35;;
7703;SDS011;3894;49.700;10.770;2023-06-22T14:00:00;9.15;;;5.65;;
7703;SDS011;3894;49.700;10.770;2023-06-22T14:02:27;8.65;;;4.78;;
7703;SDS011;3894;49.700;10.770;2023-06-22T14:04:53;9.75;;;5.60;;
7703;SDS011;3894;49.700;10.770;2023-06-22T14:07:18;10.60;;;5.07;;
7703;SDS011;3894;49.700;10.770;2023-06-22T14:09:45;10.70;;;4.80;;
7703;SDS011;3894;49.700;10.770;2023-06-22T14:12:11;13.82;;;5.00;;
7703;SDS011;3894;49.700;10.770;2023-06-22T14:14:37;11.32;;;5.13;;
7703;SDS011;3894;49.700;10.770;2023-06-22T14:17:03;11.05;;;4.75;;
7703;SDS011;3894;49.700;10.770;2023-06-22T14:19:29;10.05;;;4.90;;
7703;SDS011;3894;49.700;10.770;2023-06-22T14:21:55;11.00;;;6.15;;
7703;SDS011;3894;49.700;10.770;2023-06-22T14:24:21;14.02;;;5.38;;
7703;SDS011;3894;49.700;10.770;2023-06-22T14:26:47;11.07;;;5.63;;
7703;SDS011;3894;49.700;10.770;2023-06-22T14:29:13;11.07;;;4.93;;
7703;SDS011;3894;49.700;10.770;2023-06-22T14:31:39;10.95;;;5.25;;
7703;SDS011;3894;49.700;10.770;2023-06-22T14:34:05;15.43;;;5.50;;
7703;SDS011;3894;49.700;10.770;2023-06-22T14:36:31;10.25;;;4.72;;
7703;SDS011;3894;49.700;10.770;2023-06-22T14:38:56;14.07;;;3.95;;
7703;SDS011;3894;49.700;10.770;2023-06-22T14:41:22;14.57;;;4.50;;
7703;SDS011;3894;49.700;10.770;2023-06-22T14:43:49;9.30;;;5.40;;
7703;SDS011;3894;49.700;10.770;2023-06-22T14:48:41;13.43;;;5.32;;
7703;SDS011;3894;49.700;10.770;2023-06-22T14:51:07;10.73;;;5.40;;
7703;SDS011;3894;49.700;10.770;2023-06-22T14:53:34;10.32;;;5.05;;
7703;SDS011;3894;49.700;10.770;2023-06-22T14:56:00;10.88;;;5.30;;
7703;SDS011;3894;49.700;10.770;2023-06-22T15:00:58;11.32;;;5.10;;
7703;SDS011;3894;49.700;10.770;2023-06-22T15:03:27;9.55;;;4.68;;
7703;SDS011;3894;49.700;10.770;2023-06-22T15:05:55;10.80;;;4.45;;
7703;SDS011;3894;49.700;10.770;2023-06-22T15:08:23;14.10;;;4.50;;
7703;SDS011;3894;49.700;10.770;2023-06-22T15:10:49;10.98;;;3.72;;
7703;SDS011;3894;49.700;10.770;2023-06-22T15:13:15;14.05;;;5.00;;
7703;SDS011;3894;49.700;10.770;2023-06-22T15:15:42;10.80;;;5.05;;